createdAt,value
2018-07-16T00:01:03.629Z,73.79
2018-07-16T00:03:33.438Z,75.26
2018-07-16T00:06:03.252Z,76.42
2018-07-16T00:08:33.090Z,76.64
2018-07-16T00:11:02.950Z,76.20
2018-07-16T00:13:33.160Z,76.96
2018-07-16T00:16:02.974Z,76.33
2018-07-16T00:18:33.073Z,76.29
2018-07-16T00:21:02.853Z,75.80
2018-07-16T00:23:33.039Z,74.89
2018-07-16T00:26:02.812Z,74.48
2018-07-16T00:28:32.621Z,74.35
2018-07-16T00:31:02.590Z,74.53
2018-07-16T00:33:32.420Z,74.88
2018-07-16T00:36:02.354Z,75.29
2018-07-16T00:38:32.130Z,74.36
2018-07-16T00:41:01.914Z,74.67
2018-07-16T00:43:31.700Z,73.48
2018-07-16T00:46:01.875Z,74.22
2018-07-16T00:48:31.886Z,74.85
2018-07-16T00:51:02.064Z,75.30
2018-07-16T00:53:31.932Z,74.97
2018-07-16T00:56:01.767Z,75.13
2018-07-16T00:58:31.604Z,75.26
2018-07-16T01:01:01.516Z,75.24
2018-07-16T01:03:31.824Z,75.58
2018-07-16T01:06:01.641Z,75.42
2018-07-16T01:08:31.450Z,74.65
2018-07-16T01:11:01.263Z,74.21
2018-07-16T01:13:30.718Z,73.35
2018-07-16T01:16:00.498Z,73.62
2018-07-16T01:18:30.346Z,73.11
2018-07-16T01:21:00.142Z,74.03
2018-07-16T01:23:29.956Z,75.15
2018-07-16T01:25:59.728Z,75.38
2018-07-16T01:28:30.478Z,75.54
2018-07-16T01:31:00.242Z,75.21
2018-07-16T01:33:30.366Z,75.29
2018-07-16T01:36:00.418Z,75.09
2018-07-16T01:38:30.316Z,76.05
2018-07-16T01:41:00.206Z,75.56
2018-07-16T01:44:21.366Z,75.79
2018-07-16T01:46:51.204Z,74.85
2018-07-16T01:49:21.071Z,75.02
2018-07-16T01:51:50.946Z,75.07
2018-07-16T01:54:20.802Z,75.00
2018-07-16T01:56:50.737Z,74.78
2018-07-16T01:59:20.526Z,74.59
2018-07-16T02:01:50.394Z,74.75
2018-07-16T02:04:20.208Z,74.71
2018-07-16T02:06:50.200Z,75.08
2018-07-16T02:09:20.110Z,74.56
2018-07-16T02:11:50.320Z,74.40
2018-07-16T02:14:20.168Z,74.79
2018-07-16T02:16:50.034Z,74.76
2018-07-16T02:19:19.907Z,74.13
2018-07-16T02:21:50.194Z,74.64
2018-07-16T02:24:20.325Z,74.20
2018-07-16T02:26:50.512Z,74.16
2018-07-16T02:29:20.826Z,74.22
2018-07-16T02:31:50.624Z,74.31
2018-07-16T02:34:20.466Z,74.33
2018-07-16T02:36:50.319Z,73.80
2018-07-16T02:39:20.122Z,74.21
2018-07-16T02:41:50.177Z,74.10
2018-07-16T02:44:20.105Z,73.90
2018-07-16T02:46:49.905Z,74.02
2018-07-16T02:49:20.195Z,74.45
2018-07-16T02:51:50.048Z,74.48
2018-07-16T02:54:20.073Z,74.84
2018-07-16T02:57:24.742Z,74.70
2018-07-16T02:59:54.625Z,74.63
2018-07-16T03:02:24.421Z,74.05
2018-07-16T03:04:54.281Z,73.91
2018-07-16T03:07:24.487Z,74.10
2018-07-16T03:09:54.507Z,75.05
2018-07-16T03:12:24.373Z,75.71
2018-07-16T03:14:54.324Z,76.21
2018-07-16T03:17:24.753Z,76.07
2018-07-16T03:19:54.547Z,75.94
2018-07-16T03:22:24.680Z,76.31
2018-07-16T03:24:54.532Z,75.98
2018-07-16T03:27:24.388Z,75.59
2018-07-16T03:29:54.259Z,75.44
2018-07-16T03:32:24.307Z,75.44
2018-07-16T03:34:54.182Z,75.78
2018-07-16T03:37:24.355Z,75.81
2018-07-16T03:39:54.196Z,75.24
2018-07-16T03:42:23.963Z,75.25
2018-07-16T03:44:53.853Z,74.97
2018-07-16T03:47:23.675Z,74.86
2018-07-16T03:49:53.471Z,74.67
2018-07-16T03:52:23.719Z,74.89
2018-07-16T03:54:53.600Z,74.08
2018-07-16T03:57:23.811Z,74.94
2018-07-16T03:59:53.630Z,74.43
2018-07-16T04:02:23.500Z,74.01
2018-07-16T04:05:05.132Z,74.46
2018-07-16T04:07:35.379Z,74.80
2018-07-16T04:10:05.187Z,74.63
2018-07-16T04:12:35.003Z,74.34
2018-07-16T04:15:05.584Z,74.14
2018-07-16T04:17:35.775Z,73.34
2018-07-16T04:20:05.996Z,73.81
2018-07-16T04:22:35.834Z,73.40
2018-07-16T04:25:05.733Z,74.12
2018-07-16T04:27:35.637Z,73.26
2018-07-16T04:30:05.901Z,73.48
2018-07-16T04:32:35.737Z,73.40
2018-07-16T04:35:05.614Z,73.20
2018-07-16T04:37:35.470Z,73.25
2018-07-16T04:40:05.778Z,72.99
2018-07-16T04:42:35.603Z,72.90
2018-07-16T04:45:05.431Z,72.83
2018-07-16T04:47:35.291Z,72.97
2018-07-16T04:50:05.447Z,72.88
2018-07-16T04:52:35.325Z,72.87
2018-07-16T04:55:05.751Z,73.12
2018-07-16T04:57:35.812Z,72.19
2018-07-16T05:00:06.511Z,72.13
2018-07-16T05:02:36.643Z,72.05
2018-07-16T05:05:06.527Z,70.29
2018-07-16T05:07:36.415Z,70.81
2018-07-16T05:10:06.466Z,70.04
2018-07-16T05:12:36.886Z,69.88
2018-07-16T05:15:07.431Z,69.29
2018-07-16T05:17:37.808Z,68.53
2018-07-16T05:20:08.919Z,67.42
2018-07-16T05:22:39.332Z,66.82
2018-07-16T05:25:09.694Z,66.54
2018-07-16T05:27:40.231Z,66.24
2018-07-16T05:30:10.699Z,66.32
2018-07-16T05:32:41.374Z,69.25
2018-07-16T05:35:11.264Z,72.15
2018-07-16T05:37:41.107Z,72.18
2018-07-16T05:40:10.905Z,71.51
2018-07-16T05:42:41.327Z,63.38
2018-07-16T05:45:12.214Z,60.12
2018-07-16T05:47:42.613Z,56.69
2018-07-16T05:50:13.576Z,54.85
2018-07-16T05:52:43.971Z,53.75
2018-07-16T05:55:14.372Z,51.09
2018-07-16T05:57:44.848Z,51.53
2018-07-16T06:00:15.244Z,51.19
2018-07-16T06:02:45.644Z,49.75
2018-07-16T06:05:16.207Z,50.98
2018-07-16T06:07:46.617Z,51.29
2018-07-16T06:10:17.295Z,50.12
2018-07-16T06:12:47.671Z,50.38
2018-07-16T06:15:18.117Z,50.64
2018-07-16T06:17:48.524Z,50.85
2018-07-16T06:20:18.946Z,50.16
2018-07-16T06:22:49.567Z,49.90
2018-07-16T06:25:19.906Z,49.24
2018-07-16T06:27:50.284Z,49.86
2018-07-16T06:30:20.660Z,49.40
2018-07-16T06:32:51.020Z,50.51
2018-07-16T06:35:21.390Z,51.34
2018-07-16T06:37:51.814Z,53.13
2018-07-16T06:40:22.249Z,52.11
2018-07-16T06:42:53.324Z,50.65
2018-07-16T06:45:23.702Z,50.12
2018-07-16T06:47:54.155Z,51.42
2018-07-16T06:50:24.577Z,51.36
2018-07-16T06:52:55.246Z,51.59
2018-07-16T06:55:25.993Z,52.81
2018-07-16T06:57:56.333Z,51.35
2018-07-16T07:00:27.368Z,50.86
2018-07-16T07:02:58.088Z,50.96
2018-07-16T07:05:28.390Z,52.04
2018-07-16T07:07:59.012Z,51.48
2018-07-16T07:10:29.336Z,50.53
2018-07-16T07:12:59.660Z,50.21
2018-07-16T07:15:30.362Z,50.35
2018-07-16T07:18:00.839Z,50.06
2018-07-16T07:20:31.108Z,49.77
2018-07-16T07:23:01.569Z,48.89
2018-07-16T07:25:31.930Z,48.61
2018-07-16T07:28:02.576Z,49.48
2018-07-16T07:30:33.282Z,48.58
2018-07-16T07:33:03.720Z,48.63
2018-07-16T07:35:34.160Z,47.46
2018-07-16T07:38:04.739Z,46.95
2018-07-16T07:41:23.028Z,48.12
2018-07-16T07:43:53.381Z,48.53
2018-07-16T07:46:24.157Z,50.31
2018-07-16T07:48:54.784Z,49.87
2018-07-16T07:51:25.127Z,49.65
2018-07-16T07:53:55.644Z,49.18
2018-07-16T07:56:26.005Z,50.25
2018-07-16T07:58:56.357Z,49.38
2018-07-16T08:01:27.003Z,47.86
2018-07-16T08:03:57.697Z,46.84
2018-07-16T08:06:28.027Z,48.80
2018-07-16T08:08:58.427Z,48.85
2018-07-16T08:11:28.751Z,49.03
2018-07-16T08:13:59.263Z,50.63
2018-07-16T08:16:29.847Z,50.23
2018-07-16T08:19:00.498Z,49.82
2018-07-16T08:21:31.401Z,48.78
2018-07-16T08:24:02.007Z,48.54
2018-07-16T08:26:32.754Z,47.11
2018-07-16T08:29:03.350Z,46.21
2018-07-16T08:31:33.671Z,45.79
2018-07-16T08:34:04.287Z,45.51
2018-07-16T08:36:34.833Z,45.20
2018-07-16T08:39:06.249Z,45.63
2018-07-16T08:41:36.702Z,43.42
2018-07-16T08:44:07.633Z,43.27
2018-07-16T08:46:38.029Z,42.64
2018-07-16T08:49:08.756Z,43.43
2018-07-16T08:51:39.139Z,41.95
2018-07-16T08:54:09.497Z,43.24
2018-07-16T08:56:39.869Z,41.56
2018-07-16T08:59:10.387Z,42.98
2018-07-16T09:01:41.147Z,41.42
2018-07-16T09:04:11.518Z,40.98
2018-07-16T09:06:42.061Z,41.11
2018-07-16T09:09:12.402Z,42.74
2018-07-16T09:11:42.771Z,44.43
2018-07-16T09:14:13.145Z,42.85
2018-07-16T09:16:44.421Z,43.12
2018-07-16T09:19:14.962Z,43.27
2018-07-16T09:21:45.411Z,44.55
2018-07-16T09:24:15.829Z,42.98
2018-07-16T09:26:46.180Z,42.31
2018-07-16T09:29:16.724Z,41.99
2018-07-16T09:31:47.515Z,43.31
2018-07-16T09:34:17.845Z,43.38
2018-07-16T09:36:48.165Z,42.21
2018-07-16T09:39:18.556Z,42.43
2018-07-16T09:41:48.950Z,42.92
2018-07-16T09:44:19.720Z,41.83
2018-07-16T09:46:50.246Z,41.63
2018-07-16T09:49:20.963Z,41.00
2018-07-16T09:51:51.301Z,42.35
2018-07-16T09:54:21.792Z,41.34
2018-07-16T09:56:52.146Z,39.93
2018-07-16T09:59:22.752Z,41.27
2018-07-16T10:01:58.256Z,39.56
2018-07-16T10:04:29.080Z,38.82
2018-07-16T10:06:59.464Z,38.76
2018-07-16T10:09:30.889Z,38.56
2018-07-16T10:12:01.651Z,38.93
2018-07-16T10:14:33.695Z,39.87
2018-07-16T10:17:04.381Z,40.86
2018-07-16T10:19:34.770Z,42.23
2018-07-16T10:22:05.189Z,38.66
2018-07-16T10:24:35.589Z,37.17
2018-07-16T10:27:06.067Z,37.60
2018-07-16T10:29:36.472Z,37.95
2018-07-16T10:32:07.121Z,37.86
2018-07-16T10:34:37.555Z,37.30
2018-07-16T10:37:07.923Z,36.26
2018-07-16T10:39:38.304Z,36.62
2018-07-16T10:42:08.992Z,36.78
2018-07-16T10:44:39.127Z,35.16
2018-07-16T10:47:09.484Z,33.84
2018-07-16T10:49:39.852Z,33.67
2018-07-16T10:52:10.627Z,34.11
2018-07-16T10:54:41.825Z,34.06
2018-07-16T10:57:12.431Z,33.76
2018-07-16T10:59:42.955Z,34.87
2018-07-16T11:02:13.818Z,31.74
2018-07-16T11:04:43.965Z,33.53
2018-07-16T11:07:14.331Z,34.41
2018-07-16T11:09:44.457Z,33.04
2018-07-16T11:12:14.531Z,35.43
2018-07-16T11:14:44.673Z,33.89
2018-07-16T11:17:14.870Z,33.67
2018-07-16T11:19:45.036Z,32.90
2018-07-16T11:22:15.747Z,33.76
2018-07-16T11:24:45.855Z,32.71
2018-07-16T11:27:17.275Z,34.17
2018-07-16T11:29:47.676Z,34.36
2018-07-16T11:32:17.783Z,34.69
2018-07-16T11:34:48.462Z,36.30
2018-07-16T11:37:18.840Z,37.34
2018-07-16T11:39:49.215Z,36.18
2018-07-16T11:42:19.629Z,36.19
2018-07-16T11:44:49.987Z,36.11
2018-07-16T11:47:20.315Z,36.38
2018-07-16T11:49:50.715Z,35.07
2018-07-16T11:52:21.109Z,35.46
2018-07-16T11:54:51.801Z,33.80
2018-07-16T11:57:22.295Z,31.08
2018-07-16T11:59:52.445Z,30.99
2018-07-16T12:02:22.470Z,31.31
2018-07-16T12:04:52.571Z,32.16
2018-07-16T12:07:22.657Z,32.53
2018-07-16T12:09:52.733Z,33.32
2018-07-16T12:12:23.255Z,33.27
2018-07-16T12:14:53.335Z,32.05
2018-07-16T12:17:23.459Z,30.41
2018-07-16T12:19:53.468Z,29.28
2018-07-16T12:22:23.551Z,30.04
2018-07-16T12:24:53.653Z,30.47
2018-07-16T12:27:23.955Z,29.07
2018-07-16T12:29:54.116Z,29.84
2018-07-16T12:32:24.145Z,30.17
2018-07-16T12:34:54.572Z,28.92
2018-07-16T12:37:24.636Z,28.16
2018-07-16T12:39:54.994Z,26.46
2018-07-16T12:42:25.292Z,26.16
2018-07-16T12:44:55.688Z,25.66
2018-07-16T12:47:26.368Z,25.39
2018-07-16T12:49:56.784Z,25.12
2018-07-16T12:52:26.840Z,23.92
2018-07-16T12:54:56.889Z,25.91
2018-07-16T12:57:26.970Z,28.24
2018-07-16T12:59:57.082Z,30.10
2018-07-16T13:02:27.803Z,30.38
2018-07-16T13:04:58.156Z,30.95
2018-07-16T13:07:28.626Z,31.17
2018-07-16T13:09:58.999Z,30.13
2018-07-16T13:12:29.412Z,30.74
2018-07-16T13:14:59.834Z,30.15
2018-07-16T13:17:30.269Z,29.63
2018-07-16T13:20:00.680Z,29.29
2018-07-16T13:22:31.046Z,29.91
2018-07-16T13:25:01.228Z,29.15
2018-07-16T13:27:31.607Z,29.53
2018-07-16T13:30:01.665Z,29.30
2018-07-16T13:32:32.047Z,28.39
2018-07-16T13:35:02.133Z,28.10
2018-07-16T13:37:32.863Z,26.36
2018-07-16T13:40:02.985Z,26.39
2018-07-16T13:42:33.297Z,25.86
2018-07-16T13:45:03.827Z,25.93
2018-07-16T13:47:33.916Z,24.81
2018-07-16T13:50:04.384Z,24.96
2018-07-16T13:52:34.808Z,26.34
2018-07-16T13:55:05.214Z,26.02
2018-07-16T13:57:36.378Z,26.07
2018-07-16T14:00:07.098Z,27.10
2018-07-16T14:02:37.224Z,27.13
2018-07-16T14:05:07.266Z,27.81
2018-07-16T14:07:37.746Z,27.49
2018-07-16T14:10:08.532Z,26.09
2018-07-16T14:12:38.977Z,28.27
2018-07-16T14:15:09.388Z,31.69
2018-07-16T14:17:39.904Z,35.36
2018-07-16T14:20:10.630Z,34.48
2018-07-16T14:22:40.984Z,34.56
2018-07-16T14:25:11.431Z,35.02
2018-07-16T14:27:42.030Z,34.85
2018-07-16T14:30:12.421Z,34.88
2018-07-16T14:32:42.800Z,33.34
2018-07-16T14:35:13.541Z,34.22
2018-07-16T14:37:44.037Z,32.42
2018-07-16T14:40:14.464Z,33.24
2018-07-16T14:42:44.836Z,34.10
2018-07-16T14:45:15.269Z,34.73
2018-07-16T14:47:46.157Z,34.45
2018-07-16T14:50:16.691Z,35.71
2018-07-16T14:52:47.258Z,34.11
2018-07-16T14:55:18.358Z,34.37
2018-07-16T14:57:48.728Z,33.86
2018-07-16T15:00:19.690Z,33.74
2018-07-16T15:02:50.049Z,34.18
2018-07-16T15:05:20.427Z,33.20
2018-07-16T15:07:50.755Z,33.75
2018-07-16T15:10:21.112Z,33.18
2018-07-16T15:12:51.821Z,32.03
2018-07-16T15:15:22.183Z,32.97
2018-07-16T15:17:52.690Z,33.28
2018-07-16T15:20:23.282Z,32.80
2018-07-16T15:22:54.151Z,31.76
2018-07-16T15:25:24.470Z,32.24
2018-07-16T15:27:54.886Z,32.56
2018-07-16T15:30:25.369Z,32.41
2018-07-16T15:32:55.734Z,32.71
2018-07-16T15:35:26.412Z,31.80
2018-07-16T15:37:56.980Z,32.44
2018-07-16T15:40:27.372Z,31.30
2018-07-16T15:42:57.836Z,32.02
2018-07-16T15:45:28.278Z,31.76
2018-07-16T15:47:58.671Z,30.63
2018-07-16T15:50:29.049Z,30.66
2018-07-16T15:52:59.541Z,30.59
2018-07-16T15:55:30.069Z,30.75
2018-07-16T15:58:00.435Z,30.73
2018-07-16T16:00:30.995Z,30.47
2018-07-16T16:03:01.324Z,30.52
2018-07-16T16:05:31.697Z,30.10
2018-07-16T16:08:02.317Z,30.00
2018-07-16T16:10:32.775Z,30.22
2018-07-16T16:13:03.196Z,31.76
2018-07-16T16:15:33.599Z,32.32
2018-07-16T16:18:03.757Z,30.64
2018-07-16T16:20:34.485Z,29.16
2018-07-16T16:23:04.778Z,30.38
2018-07-16T16:25:35.673Z,29.12
2018-07-16T16:28:06.101Z,27.94
2018-07-16T16:30:36.233Z,27.74
2018-07-16T16:33:06.590Z,28.62
2018-07-16T16:35:37.759Z,30.24
2018-07-16T16:38:08.237Z,29.70
2018-07-16T16:40:38.932Z,30.24
2018-07-16T16:43:09.400Z,29.18
2018-07-16T16:45:40.163Z,29.54
2018-07-16T16:48:11.160Z,29.25
2018-07-16T16:50:41.571Z,30.00
2018-07-16T16:53:11.916Z,31.40
2018-07-16T16:55:42.320Z,31.31
2018-07-16T16:58:12.696Z,31.27
2018-07-16T17:00:43.136Z,31.17
2018-07-16T17:03:15.051Z,31.45
2018-07-16T17:05:45.461Z,31.28
2018-07-16T17:08:16.546Z,32.27
2018-07-16T17:10:46.960Z,31.82
2018-07-16T17:13:17.422Z,32.55
2018-07-16T17:15:47.862Z,32.53
2018-07-16T17:18:18.384Z,32.42
2018-07-16T17:20:49.486Z,32.30
2018-07-16T17:23:19.965Z,33.05
2018-07-16T17:25:50.502Z,34.43
2018-07-16T17:28:21.264Z,34.97
2018-07-16T17:30:51.842Z,35.08
2018-07-16T17:34:51.983Z,35.50
2018-07-16T17:37:22.458Z,35.77
2018-07-16T17:39:53.082Z,36.25
2018-07-16T17:42:23.881Z,36.77
2018-07-16T17:44:55.187Z,36.73
2018-07-16T17:47:27.678Z,36.94
2018-07-16T17:49:58.043Z,37.86
2018-07-16T17:52:28.423Z,36.98
2018-07-16T17:54:58.782Z,38.04
2018-07-16T17:57:29.257Z,37.09
2018-07-16T17:59:59.726Z,37.10
2018-07-16T18:02:30.107Z,37.33
2018-07-16T18:05:00.541Z,37.04
2018-07-16T18:07:30.898Z,37.82
2018-07-16T18:10:01.465Z,38.46
2018-07-16T18:12:31.833Z,38.22
2018-07-16T18:15:02.319Z,38.75
2018-07-16T18:17:33.060Z,38.50
2018-07-16T18:20:03.435Z,38.83
2018-07-16T18:22:33.793Z,38.85
2018-07-16T18:25:04.223Z,39.75
2018-07-16T18:27:34.953Z,38.98
2018-07-16T18:30:06.231Z,40.97
2018-07-16T18:32:36.683Z,41.64
2018-07-16T18:35:07.222Z,42.01
2018-07-16T18:37:37.704Z,42.00
2018-07-16T18:40:08.233Z,42.25
2018-07-16T18:42:38.871Z,42.14
2018-07-16T18:45:10.041Z,41.46
2018-07-16T18:47:40.505Z,41.24
2018-07-16T18:50:11.005Z,41.88
2018-07-16T18:52:42.503Z,41.97
2018-07-16T18:55:12.891Z,42.63
2018-07-16T18:57:43.810Z,42.64
2018-07-16T19:00:14.429Z,43.32
2018-07-16T19:02:45.083Z,43.09
2018-07-16T19:05:15.523Z,43.72
2018-07-16T19:07:46.232Z,42.40
2018-07-16T19:10:16.602Z,43.86
2018-07-16T19:12:47.019Z,44.69
2018-07-16T19:15:26.166Z,45.08
2018-07-16T19:17:57.541Z,45.12
2018-07-16T19:20:28.622Z,44.40
2018-07-16T19:22:59.819Z,44.96
2018-07-16T19:25:30.575Z,45.11
2018-07-16T19:28:00.966Z,46.03
2018-07-16T19:30:32.825Z,45.85
2018-07-16T19:33:03.270Z,45.90
2018-07-16T19:35:33.650Z,45.48
2018-07-16T19:38:04.239Z,45.54
2018-07-16T19:40:34.629Z,46.11
2018-07-16T19:43:05.154Z,47.00
2018-07-16T19:45:35.527Z,46.88
2018-07-16T19:48:05.912Z,48.05
2018-07-16T19:50:36.264Z,47.36
2018-07-16T19:53:06.990Z,48.18
2018-07-16T19:55:37.480Z,48.03
2018-07-16T19:58:08.011Z,48.66
2018-07-16T20:00:38.467Z,49.00
2018-07-16T20:03:09.050Z,48.44
2018-07-16T20:05:39.474Z,48.60
2018-07-16T20:08:09.930Z,48.98
2018-07-16T20:10:40.564Z,48.54
2018-07-16T20:13:11.077Z,49.35
2018-07-16T20:15:41.830Z,49.99
2018-07-16T20:18:13.760Z,49.86
2018-07-16T20:20:59.320Z,50.39
2018-07-16T20:23:31.698Z,50.11
2018-07-16T20:26:02.590Z,50.06
2018-07-16T20:28:33.024Z,49.75
2018-07-16T20:31:03.474Z,50.21
2018-07-16T20:33:34.251Z,50.72
2018-07-16T20:36:04.824Z,51.31
2018-07-16T20:38:35.512Z,51.94
2018-07-16T20:41:05.941Z,50.72
2018-07-16T20:43:36.402Z,51.70
2018-07-16T20:46:06.928Z,52.21
2018-07-16T20:48:37.324Z,51.35
2018-07-16T20:51:08.464Z,52.30
2018-07-16T20:53:39.234Z,51.78
2018-07-16T20:56:09.644Z,50.42
2018-07-16T20:58:40.164Z,49.47
2018-07-16T21:01:10.690Z,48.68
2018-07-16T21:03:41.121Z,48.29
2018-07-16T21:06:11.817Z,48.19
2018-07-16T21:08:42.505Z,47.15
2018-07-16T21:11:12.901Z,46.58
2018-07-16T21:13:43.290Z,46.73
2018-07-16T21:16:13.709Z,46.14
2018-07-16T21:18:44.087Z,46.89
2018-07-16T21:21:14.521Z,47.15
2018-07-16T21:23:44.933Z,47.20
2018-07-16T21:26:15.689Z,46.90
2018-07-16T21:28:46.187Z,46.95
2018-07-16T21:31:16.709Z,47.35
2018-07-16T21:33:47.423Z,47.11
2018-07-16T21:36:17.857Z,48.55
2018-07-16T21:38:48.611Z,47.61
2018-07-16T21:41:19.384Z,48.02
2018-07-16T21:43:49.813Z,48.26
2018-07-16T21:46:20.266Z,48.23
2018-07-16T21:48:50.784Z,48.38
2018-07-16T21:51:21.449Z,48.93
2018-07-16T21:53:51.967Z,49.45
2018-07-16T21:56:23.723Z,49.49
2018-07-16T22:02:30.572Z,51.28
2018-07-16T22:05:01.072Z,50.85
2018-07-16T22:07:31.446Z,51.16
2018-07-16T22:10:01.877Z,51.43
2018-07-16T22:12:32.537Z,50.98
2018-07-16T22:15:03.275Z,51.35
2018-07-16T22:17:33.668Z,51.29
2018-07-16T22:20:04.273Z,51.30
2018-07-16T22:22:34.699Z,52.22
2018-07-16T22:25:04.801Z,51.78
2018-07-16T22:27:35.334Z,51.99
2018-07-16T22:30:05.880Z,51.96
2018-07-16T22:32:37.094Z,52.68
2018-07-16T22:35:07.571Z,52.56
2018-07-16T22:37:38.043Z,51.46
2018-07-16T22:40:09.370Z,52.08
2018-07-16T22:42:39.828Z,52.36
2018-07-16T22:45:11.027Z,53.09
2018-07-16T22:47:41.434Z,53.25
2018-07-16T22:50:11.839Z,53.12
2018-07-16T22:52:42.247Z,52.56
2018-07-16T22:55:12.872Z,55.02
2018-07-16T22:57:43.564Z,55.71
2018-07-16T23:00:14.918Z,56.31
2018-07-16T23:02:45.297Z,56.32
2018-07-16T23:05:15.680Z,57.08
2018-07-16T23:07:46.101Z,56.70
2018-07-16T23:10:18.026Z,56.59
2018-07-16T23:12:48.492Z,57.01
2018-07-16T23:15:18.884Z,55.72
2018-07-16T23:17:49.278Z,56.07
2018-07-16T23:20:19.700Z,55.86
2018-07-16T23:22:54.304Z,57.19
2018-07-16T23:25:24.209Z,58.33
2018-07-16T23:27:54.153Z,58.98
2018-07-16T23:30:23.966Z,58.77
2018-07-16T23:32:53.809Z,58.84
2018-07-16T23:35:24.328Z,58.58
2018-07-16T23:37:54.160Z,57.66
2018-07-16T23:40:24.262Z,57.86
2018-07-16T23:42:54.667Z,57.82
2018-07-16T23:45:25.178Z,57.23
2018-07-16T23:47:55.560Z,56.97
2018-07-16T23:50:26.505Z,57.25
2018-07-16T23:52:57.012Z,56.29
2018-07-16T23:55:27.573Z,55.90
2018-07-16T23:57:58.510Z,56.56
